Inez, Texas
Current Conditions -  °F | °C
As of 5:51 PM on Monday 20 Oct 2014 (Local Time) from KVCT Reporting Station
Clear Clear  
Wind Chill: 81°   Ceiling: Unl
Heat Index: 82°   Visibility: 10mi
Dew Point: 63°   Wind: 9mph
Humidity: 54%   Direction: 60°ENE
Pressure: 29.96"   Gusts: NA
Location:  28.9°N, 96.79°W
Report Text: KVCT 202251Z 06008KT 10SM CLR 27/17 A2996 RMK AO2 SLP145 T02720172
Loading
Personal Weather Stations






























Interactive Weather Map
Tropical Storm Tracking
New forecast layout! Learn more

10-Day Weather Forecast

Advertisements
Track Severe Weather on mobile